CheckWX is a tool to help pilots better visualize weather data.  It is not intended as a substitute for an official pre-flight weather briefing.

11:06:38 UTC

OMDB TAF
Dubai International Airport
Dubai, United Arab Emirates
TAF OMDB 140455Z 1406/1512 17005KT 8000 NSC BECMG 1408/1410 33013KT BECMG 1415/1417 09005KT BECMG 1502/1504 18010KT BECMG 1508/1510 33012KT

Oct-14@
06:00 UTC

Oct-14 @ 06:00 UTC

Oct-14@
08:00 UTC

Oct-14 @ 08:00 UTC

TAF OMDB 140455Z 1406/1512 17005KT 8000 NSC

Expired

Wind
  • 170° at 5 KTS
Cloud Levels
  • No significant clouds

Oct-14@
08:00 UTC

Oct-14 @ 08:00 UTC

Oct-14@
15:00 UTC

Oct-14 @ 15:00 UTC

BECMG 1408/1410 33013KT

Becoming

Becoming Conditions expected by Mon, Oct 14, 2019 @ 10:00 UTC

Wind
  • 330° at 13 KTS
Cloud Levels
  • No significant clouds

Oct-14@
15:00 UTC

Oct-14 @ 15:00 UTC

Oct-15@
02:00 UTC

Oct-15 @ 02:00 UTC

BECMG 1415/1417 09005KT

Becoming

Becoming Conditions expected by Mon, Oct 14, 2019 @ 17:00 UTC

Wind
  • 090° at 5 KTS
Cloud Levels
  • No significant clouds

Oct-15@
02:00 UTC

Oct-15 @ 02:00 UTC

Oct-15@
08:00 UTC

Oct-15 @ 08:00 UTC

BECMG 1502/1504 18010KT

Becoming

Becoming Conditions expected by Tue, Oct 15, 2019 @ 04:00 UTC

Wind
  • 180° at 10 KTS
Cloud Levels
  • No significant clouds

Oct-15@
08:00 UTC

Oct-15 @ 08:00 UTC

Oct-15@
12:00 UTC

Oct-15 @ 12:00 UTC

BECMG 1508/1510 33012KT

Becoming

Becoming Conditions expected by Tue, Oct 15, 2019 @ 10:00 UTC

Wind
  • 330° at 12 KTS
Cloud Levels
  • No significant clouds